JMT YMEN-YMER
Flight info
| Callsign | JMT |
|---|---|
| Flight time | 0h 59m |
| Altitude | 25000 |
| Route | ESDAN DCT VALDU DCT MER |
| Aircraft | PC12/L-SDFGRWYZ/S |
Departure
| Time | 2026-04-25 00:24 |
|---|---|
| Airport | Melbourne Essendon Airport (YMEN) |
Arrival
| Time | 2026-04-25 01:23 |
|---|---|
| Airport | Merimbula Airport (YMER) |
| Time | Latitude | Longitude | Altitude | Speed | Heading |
|---|---|---|---|---|---|
| 2026-04-25 00:09 | -37.72146 | 144.89883 | 265 ft | 0 kts | 267° |
| 2026-04-25 00:19 | -37.72147 | 144.89869 | 292 ft | 6 kts | 246° |
| 2026-04-25 00:19 | -37.72188 | 144.89908 | 264 ft | 12 kts | 120° |
| 2026-04-25 00:19 | -37.72274 | 144.89940 | 263 ft | 15 kts | 160° |
| 2026-04-25 00:19 | -37.72307 | 144.89961 | 262 ft | 16 kts | 154° |
| 2026-04-25 00:20 | -37.72312 | 144.89964 | 262 ft | 16 kts | 154° |
| 2026-04-25 00:20 | -37.72430 | 144.89975 | 262 ft | 18 kts | 178° |
| 2026-04-25 00:20 | -37.72563 | 144.89983 | 264 ft | 19 kts | 179° |
| 2026-04-25 00:21 | -37.72702 | 144.89988 | 266 ft | 21 kts | 177° |
| 2026-04-25 00:21 | -37.72854 | 144.89995 | 266 ft | 23 kts | 178° |
| 2026-04-25 00:21 | -37.73019 | 144.90003 | 262 ft | 26 kts | 178° |
| 2026-04-25 00:21 | -37.73212 | 144.90014 | 259 ft | 28 kts | 179° |
| 2026-04-25 00:22 | -37.73360 | 144.90031 | 251 ft | 6 kts | 146° |
| 2026-04-25 00:22 | -37.73370 | 144.90041 | 249 ft | 0 kts | 136° |
| 2026-04-25 00:22 | -37.73380 | 144.90066 | 248 ft | 9 kts | 105° |
| 2026-04-25 00:22 | -37.73380 | 144.90140 | 248 ft | 10 kts | 30° |
| 2026-04-25 00:23 | -37.73236 | 144.90136 | 255 ft | 40 kts | 356° |
| 2026-04-25 00:23 | -37.72826 | 144.90111 | 265 ft | 73 kts | 358° |
| 2026-04-25 00:23 | -37.72288 | 144.90083 | 424 ft | 80 kts | 4° |
| 2026-04-25 00:23 | -37.71747 | 144.90032 | 745 ft | 80 kts | 1° |
| 2026-04-25 00:24 | -37.71137 | 144.90006 | 924 ft | 89 kts | 17° |
| 2026-04-25 00:24 | -37.70874 | 144.90655 | 1193 ft | 104 kts | 88° |
| 2026-04-25 00:24 | -37.71027 | 144.91638 | 1436 ft | 121 kts | 95° |
| 2026-04-25 00:24 | -37.71340 | 144.92733 | 1702 ft | 140 kts | 101° |
| 2026-04-25 00:25 | -37.71699 | 144.93887 | 2097 ft | 141 kts | 95° |
| 2026-04-25 00:25 | -37.71792 | 144.95075 | 2482 ft | 131 kts | 68° |
| 2026-04-25 00:25 | -37.71587 | 144.96213 | 2853 ft | 136 kts | 65° |
| 2026-04-25 00:25 | -37.71345 | 144.97410 | 3237 ft | 145 kts | 65° |
| 2026-04-25 00:26 | -37.71178 | 144.98233 | 3521 ft | 146 kts | 65° |
| 2026-04-25 00:26 | -37.70913 | 144.99508 | 3906 ft | 154 kts | 65° |
| 2026-04-25 00:26 | -37.70556 | 145.01231 | 4585 ft | 152 kts | 66° |
| 2026-04-25 00:26 | -37.70373 | 145.02106 | 4910 ft | 154 kts | 66° |
| 2026-04-25 00:27 | -37.70003 | 145.03860 | 5547 ft | 158 kts | 67° |
| 2026-04-25 00:27 | -37.69720 | 145.05208 | 6017 ft | 162 kts | 68° |
| 2026-04-25 00:27 | -37.69522 | 145.06149 | 6337 ft | 166 kts | 68° |
| 2026-04-25 00:27 | -37.69230 | 145.07543 | 6850 ft | 167 kts | 69° |
| 2026-04-25 00:28 | -37.68930 | 145.08973 | 7297 ft | 169 kts | 69° |
| 2026-04-25 00:28 | -37.68627 | 145.10414 | 7767 ft | 170 kts | 69° |
| 2026-04-25 00:28 | -37.68321 | 145.11858 | 8279 ft | 171 kts | 69° |
| 2026-04-25 00:28 | -37.68013 | 145.13321 | 8745 ft | 174 kts | 70° |
| 2026-04-25 00:29 | -37.67699 | 145.14805 | 9253 ft | 175 kts | 70° |
| 2026-04-25 00:29 | -37.67385 | 145.16296 | 9780 ft | 177 kts | 70° |
| 2026-04-25 00:29 | -37.67065 | 145.17808 | 10325 ft | 179 kts | 70° |
| 2026-04-25 00:29 | -37.66743 | 145.19331 | 10820 ft | 180 kts | 70° |
| 2026-04-25 00:30 | -37.66421 | 145.20856 | 11308 ft | 180 kts | 70° |
| 2026-04-25 00:30 | -37.66096 | 145.22390 | 11788 ft | 181 kts | 70° |
| 2026-04-25 00:30 | -37.65770 | 145.23924 | 12292 ft | 181 kts | 70° |
| 2026-04-25 00:30 | -37.65444 | 145.25464 | 12786 ft | 182 kts | 70° |
| 2026-04-25 00:31 | -37.65115 | 145.27012 | 13273 ft | 183 kts | 70° |
| 2026-04-25 00:31 | -37.64785 | 145.28565 | 13769 ft | 183 kts | 70° |
| 2026-04-25 00:31 | -37.64459 | 145.30095 | 14286 ft | 184 kts | 70° |
| 2026-04-25 00:31 | -37.64126 | 145.31661 | 14746 ft | 185 kts | 70° |
| 2026-04-25 00:32 | -37.63791 | 145.33236 | 15230 ft | 187 kts | 71° |
| 2026-04-25 00:32 | -37.63452 | 145.34826 | 15695 ft | 189 kts | 71° |
| 2026-04-25 00:32 | -37.63109 | 145.36435 | 16161 ft | 191 kts | 71° |
| 2026-04-25 00:32 | -37.62760 | 145.38069 | 16581 ft | 196 kts | 71° |
| 2026-04-25 00:33 | -37.62397 | 145.39769 | 16916 ft | 205 kts | 71° |
| 2026-04-25 00:33 | -37.62021 | 145.41535 | 17250 ft | 212 kts | 73° |
| 2026-04-25 00:33 | -37.61633 | 145.43352 | 17584 ft | 217 kts | 72° |
| 2026-04-25 00:33 | -37.61236 | 145.45203 | 17926 ft | 221 kts | 73° |
| 2026-04-25 00:34 | -37.60832 | 145.47090 | 18270 ft | 224 kts | 73° |
| 2026-04-25 00:34 | -37.60423 | 145.48996 | 18615 ft | 226 kts | 74° |
| 2026-04-25 00:34 | -37.60009 | 145.50924 | 18926 ft | 229 kts | 74° |
| 2026-04-25 00:34 | -37.59592 | 145.52866 | 19218 ft | 230 kts | 73° |
| 2026-04-25 00:35 | -37.59171 | 145.54822 | 19535 ft | 232 kts | 73° |
| 2026-04-25 00:35 | -37.58749 | 145.56784 | 19841 ft | 232 kts | 72° |
| 2026-04-25 00:35 | -37.58326 | 145.58747 | 20153 ft | 231 kts | 72° |
| 2026-04-25 00:35 | -37.57904 | 145.60704 | 20466 ft | 231 kts | 72° |
| 2026-04-25 00:36 | -37.57481 | 145.62660 | 20783 ft | 231 kts | 72° |
| 2026-04-25 00:36 | -37.57060 | 145.64612 | 21105 ft | 231 kts | 71° |
| 2026-04-25 00:36 | -37.56637 | 145.66569 | 21436 ft | 231 kts | 71° |
| 2026-04-25 00:36 | -37.56213 | 145.68525 | 21758 ft | 232 kts | 71° |
| 2026-04-25 00:37 | -37.55789 | 145.70484 | 22096 ft | 232 kts | 72° |
| 2026-04-25 00:37 | -37.55368 | 145.72431 | 22425 ft | 233 kts | 71° |
| 2026-04-25 00:37 | -37.54940 | 145.74401 | 22762 ft | 234 kts | 72° |
| 2026-04-25 00:37 | -37.54511 | 145.76379 | 23109 ft | 234 kts | 72° |
| 2026-04-25 00:38 | -37.54082 | 145.78355 | 23459 ft | 234 kts | 71° |
| 2026-04-25 00:38 | -37.53652 | 145.80331 | 23809 ft | 234 kts | 71° |
| 2026-04-25 00:38 | -37.53221 | 145.82310 | 24140 ft | 235 kts | 71° |
| 2026-04-25 00:38 | -37.52789 | 145.84293 | 24431 ft | 235 kts | 71° |
| 2026-04-25 00:39 | -37.52355 | 145.86283 | 24726 ft | 236 kts | 72° |
| 2026-04-25 00:39 | -37.51918 | 145.88283 | 24996 ft | 238 kts | 72° |
| 2026-04-25 00:39 | -37.51472 | 145.90324 | 25174 ft | 244 kts | 72° |
| 2026-04-25 00:39 | -37.51017 | 145.92405 | 25336 ft | 248 kts | 71° |
| 2026-04-25 00:40 | -37.50552 | 145.94529 | 25421 ft | 257 kts | 72° |
| 2026-04-25 00:40 | -37.50068 | 145.96740 | 25424 ft | 266 kts | 72° |
| 2026-04-25 00:40 | -37.49569 | 145.99017 | 25426 ft | 274 kts | 72° |
| 2026-04-25 00:40 | -37.49056 | 146.01355 | 25429 ft | 280 kts | 72° |
| 2026-04-25 00:41 | -37.48533 | 146.03736 | 25433 ft | 284 kts | 72° |
| 2026-04-25 00:41 | -37.48003 | 146.06143 | 25433 ft | 287 kts | 72° |
| 2026-04-25 00:41 | -37.47474 | 146.08548 | 25434 ft | 289 kts | 72° |
| 2026-04-25 00:41 | -37.46936 | 146.10991 | 25434 ft | 290 kts | 72° |
| 2026-04-25 00:42 | -37.46394 | 146.13447 | 25436 ft | 292 kts | 72° |
| 2026-04-25 00:42 | -37.45850 | 146.15909 | 25436 ft | 292 kts | 72° |
| 2026-04-25 00:42 | -37.45305 | 146.18372 | 25438 ft | 293 kts | 73° |
| 2026-04-25 00:42 | -37.44759 | 146.20837 | 25435 ft | 292 kts | 72° |
| 2026-04-25 00:43 | -37.44213 | 146.23301 | 25433 ft | 293 kts | 73° |
| 2026-04-25 00:43 | -37.43665 | 146.25770 | 25435 ft | 293 kts | 72° |
| 2026-04-25 00:43 | -37.43116 | 146.28243 | 25439 ft | 294 kts | 72° |
| 2026-04-25 00:43 | -37.42565 | 146.30718 | 25438 ft | 294 kts | 73° |
| 2026-04-25 00:44 | -37.42015 | 146.33193 | 25434 ft | 293 kts | 73° |
| 2026-04-25 00:44 | -37.41464 | 146.35668 | 25432 ft | 294 kts | 73° |
| 2026-04-25 00:44 | -37.40911 | 146.38143 | 25438 ft | 294 kts | 72° |
| 2026-04-25 00:44 | -37.40357 | 146.40624 | 25434 ft | 294 kts | 72° |
| 2026-04-25 00:45 | -37.39804 | 146.43095 | 25435 ft | 293 kts | 73° |
| 2026-04-25 00:45 | -37.39252 | 146.45563 | 25433 ft | 293 kts | 73° |
| 2026-04-25 00:45 | -37.38707 | 146.47997 | 25434 ft | 293 kts | 73° |
| 2026-04-25 00:45 | -37.38153 | 146.50466 | 25434 ft | 293 kts | 73° |
| 2026-04-25 00:46 | -37.37599 | 146.52933 | 25434 ft | 293 kts | 72° |
| 2026-04-25 00:46 | -37.37044 | 146.55400 | 25428 ft | 293 kts | 73° |
| 2026-04-25 00:46 | -37.35932 | 146.60341 | 25434 ft | 294 kts | 72° |
| 2026-04-25 00:47 | -37.35374 | 146.62818 | 25431 ft | 294 kts | 73° |
| 2026-04-25 00:47 | -37.34813 | 146.65299 | 25429 ft | 295 kts | 73° |
| 2026-04-25 00:47 | -37.34254 | 146.67775 | 25429 ft | 295 kts | 73° |
| 2026-04-25 00:47 | -37.33704 | 146.70207 | 25429 ft | 294 kts | 73° |
| 2026-04-25 00:48 | -37.33143 | 146.72683 | 25428 ft | 294 kts | 72° |
| 2026-04-25 00:48 | -37.32583 | 146.75154 | 25430 ft | 294 kts | 73° |
| 2026-04-25 00:48 | -37.32022 | 146.77625 | 25428 ft | 294 kts | 72° |
| 2026-04-25 00:48 | -37.31460 | 146.80100 | 25430 ft | 294 kts | 73° |
| 2026-04-25 00:49 | -37.30897 | 146.82575 | 25426 ft | 295 kts | 73° |
| 2026-04-25 00:49 | -37.30333 | 146.85053 | 25429 ft | 295 kts | 73° |
| 2026-04-25 00:49 | -37.29774 | 146.87502 | 25425 ft | 295 kts | 72° |
| 2026-04-25 00:49 | -37.29210 | 146.89978 | 25428 ft | 296 kts | 72° |
| 2026-04-25 00:50 | -37.28641 | 146.92467 | 25426 ft | 296 kts | 73° |
| 2026-04-25 00:50 | -37.28073 | 146.94952 | 25424 ft | 296 kts | 72° |
| 2026-04-25 00:50 | -37.27505 | 146.97432 | 25423 ft | 296 kts | 73° |
| 2026-04-25 00:50 | -37.26937 | 146.99911 | 25427 ft | 295 kts | 73° |
| 2026-04-25 00:51 | -37.26369 | 147.02390 | 25426 ft | 295 kts | 72° |
| 2026-04-25 00:51 | -37.25799 | 147.04872 | 25427 ft | 295 kts | 72° |
| 2026-04-25 00:51 | -37.25229 | 147.07352 | 25427 ft | 296 kts | 73° |
| 2026-04-25 00:51 | -37.24658 | 147.09833 | 25427 ft | 296 kts | 72° |
| 2026-04-25 00:52 | -37.24085 | 147.12320 | 25422 ft | 296 kts | 73° |
| 2026-04-25 00:52 | -37.23513 | 147.14801 | 25424 ft | 296 kts | 72° |
| 2026-04-25 00:52 | -37.22943 | 147.17272 | 25426 ft | 295 kts | 72° |
| 2026-04-25 00:52 | -37.22376 | 147.19722 | 25422 ft | 295 kts | 73° |
| 2026-04-25 00:53 | -37.21804 | 147.22197 | 25422 ft | 295 kts | 72° |
| 2026-04-25 00:53 | -37.21230 | 147.24677 | 25423 ft | 295 kts | 72° |
| 2026-04-25 00:53 | -37.20657 | 147.27147 | 25423 ft | 295 kts | 73° |
| 2026-04-25 00:53 | -37.20084 | 147.29617 | 25422 ft | 295 kts | 73° |
| 2026-04-25 00:54 | -37.19510 | 147.32089 | 25421 ft | 294 kts | 72° |
| 2026-04-25 00:54 | -37.18936 | 147.34556 | 25421 ft | 295 kts | 72° |
| 2026-04-25 00:54 | -37.18354 | 147.37057 | 25418 ft | 295 kts | 72° |
| 2026-04-25 00:54 | -37.17779 | 147.39524 | 25415 ft | 295 kts | 72° |
| 2026-04-25 00:55 | -37.17210 | 147.41963 | 25419 ft | 294 kts | 72° |
| 2026-04-25 00:55 | -37.16636 | 147.44423 | 25420 ft | 294 kts | 72° |
| 2026-04-25 00:55 | -37.16062 | 147.46877 | 25419 ft | 293 kts | 72° |
| 2026-04-25 00:55 | -37.15489 | 147.49328 | 25417 ft | 293 kts | 72° |
| 2026-04-25 00:56 | -37.14916 | 147.51772 | 25416 ft | 292 kts | 73° |
| 2026-04-25 00:56 | -37.14343 | 147.54217 | 25418 ft | 292 kts | 73° |
| 2026-04-25 00:56 | -37.13952 | 147.56702 | 25409 ft | 290 kts | 82° |
| 2026-04-25 00:56 | -37.13739 | 147.59215 | 25414 ft | 290 kts | 84° |
| 2026-04-25 00:57 | -37.13543 | 147.61740 | 25412 ft | 291 kts | 84° |
| 2026-04-25 00:57 | -37.13328 | 147.64257 | 25412 ft | 291 kts | 83° |
| 2026-04-25 00:57 | -37.13102 | 147.66773 | 25411 ft | 291 kts | 83° |
| 2026-04-25 00:57 | -37.12879 | 147.69295 | 25412 ft | 291 kts | 83° |
| 2026-04-25 00:58 | -37.12660 | 147.71825 | 25413 ft | 292 kts | 83° |
| 2026-04-25 00:58 | -37.12439 | 147.74354 | 25412 ft | 293 kts | 83° |
| 2026-04-25 00:58 | -37.12215 | 147.76891 | 25412 ft | 293 kts | 83° |
| 2026-04-25 00:58 | -37.11990 | 147.79429 | 25412 ft | 293 kts | 83° |
| 2026-04-25 00:59 | -37.11766 | 147.81961 | 25414 ft | 293 kts | 83° |
| 2026-04-25 00:59 | -37.11541 | 147.84494 | 25414 ft | 293 kts | 83° |
| 2026-04-25 00:59 | -37.11318 | 147.87000 | 25413 ft | 293 kts | 83° |
| 2026-04-25 00:59 | -37.11092 | 147.89540 | 25413 ft | 293 kts | 83° |
| 2026-04-25 01:00 | -37.10865 | 147.92076 | 25411 ft | 293 kts | 83° |
| 2026-04-25 01:00 | -37.10637 | 147.94611 | 25410 ft | 293 kts | 83° |
| 2026-04-25 01:00 | -37.10410 | 147.97146 | 25411 ft | 292 kts | 83° |
| 2026-04-25 01:00 | -37.10181 | 147.99680 | 25409 ft | 292 kts | 83° |
| 2026-04-25 01:01 | -37.09952 | 148.02218 | 25411 ft | 292 kts | 83° |
| 2026-04-25 01:01 | -37.09723 | 148.04749 | 25419 ft | 293 kts | 83° |
| 2026-04-25 01:01 | -37.09493 | 148.07280 | 25417 ft | 292 kts | 83° |
| 2026-04-25 01:01 | -37.09263 | 148.09809 | 25415 ft | 292 kts | 83° |
| 2026-04-25 01:02 | -37.09032 | 148.12342 | 25417 ft | 292 kts | 83° |
| 2026-04-25 01:02 | -37.08803 | 148.14843 | 25421 ft | 293 kts | 83° |
| 2026-04-25 01:02 | -37.08571 | 148.17381 | 25418 ft | 293 kts | 83° |
| 2026-04-25 01:02 | -37.08338 | 148.19921 | 25418 ft | 293 kts | 83° |
| 2026-04-25 01:03 | -37.08104 | 148.22456 | 25416 ft | 293 kts | 83° |
| 2026-04-25 01:03 | -37.07870 | 148.24985 | 25415 ft | 292 kts | 83° |
| 2026-04-25 01:03 | -37.07637 | 148.27509 | 25413 ft | 292 kts | 83° |
| 2026-04-25 01:03 | -37.07403 | 148.30034 | 25412 ft | 291 kts | 83° |
| 2026-04-25 01:04 | -37.07169 | 148.32551 | 25414 ft | 291 kts | 83° |
| 2026-04-25 01:04 | -37.06935 | 148.35063 | 25419 ft | 290 kts | 83° |
| 2026-04-25 01:04 | -37.06701 | 148.37572 | 25415 ft | 290 kts | 83° |
| 2026-04-25 01:04 | -37.06466 | 148.40080 | 25417 ft | 289 kts | 83° |
| 2026-04-25 01:05 | -37.06232 | 148.42575 | 25416 ft | 288 kts | 83° |
| 2026-04-25 01:05 | -37.05997 | 148.45067 | 25419 ft | 288 kts | 83° |
| 2026-04-25 01:05 | -37.05763 | 148.47556 | 25416 ft | 288 kts | 83° |
| 2026-04-25 01:05 | -37.05527 | 148.50053 | 25421 ft | 288 kts | 83° |
| 2026-04-25 01:06 | -37.05291 | 148.52540 | 25420 ft | 288 kts | 83° |
| 2026-04-25 01:06 | -37.05055 | 148.55029 | 25416 ft | 288 kts | 83° |
| 2026-04-25 01:06 | -37.04819 | 148.57517 | 25304 ft | 291 kts | 83° |
| 2026-04-25 01:06 | -37.04578 | 148.60060 | 24793 ft | 298 kts | 83° |
| 2026-04-25 01:07 | -37.04332 | 148.62652 | 24267 ft | 298 kts | 83° |
| 2026-04-25 01:07 | -37.04091 | 148.65173 | 23699 ft | 293 kts | 83° |
| 2026-04-25 01:07 | -37.03848 | 148.67686 | 23150 ft | 289 kts | 83° |
| 2026-04-25 01:07 | -37.03607 | 148.70182 | 22639 ft | 287 kts | 83° |
| 2026-04-25 01:08 | -37.03368 | 148.72658 | 22152 ft | 285 kts | 83° |
| 2026-04-25 01:08 | -37.03132 | 148.75111 | 21667 ft | 283 kts | 83° |
| 2026-04-25 01:08 | -37.02896 | 148.77548 | 21191 ft | 281 kts | 83° |
| 2026-04-25 01:08 | -37.02660 | 148.79972 | 20724 ft | 279 kts | 83° |
| 2026-04-25 01:09 | -37.02505 | 148.81568 | 20418 ft | 278 kts | 83° |
| 2026-04-25 01:09 | -37.02192 | 148.84781 | 19785 ft | 277 kts | 83° |
| 2026-04-25 01:09 | -37.02037 | 148.86365 | 19472 ft | 276 kts | 83° |
| 2026-04-25 01:09 | -37.01804 | 148.88754 | 19006 ft | 275 kts | 83° |
| 2026-04-25 01:10 | -37.01571 | 148.91127 | 18521 ft | 274 kts | 83° |
| 2026-04-25 01:10 | -37.01340 | 148.93485 | 17997 ft | 273 kts | 83° |
| 2026-04-25 01:10 | -37.01108 | 148.95841 | 17478 ft | 272 kts | 83° |
| 2026-04-25 01:10 | -37.00876 | 148.98188 | 16969 ft | 271 kts | 83° |
| 2026-04-25 01:11 | -37.00648 | 149.00498 | 16472 ft | 271 kts | 83° |
| 2026-04-25 01:11 | -37.00415 | 149.02844 | 15996 ft | 271 kts | 82° |
| 2026-04-25 01:11 | -37.00182 | 149.05189 | 15561 ft | 273 kts | 82° |
| 2026-04-25 01:11 | -36.99946 | 149.07555 | 15129 ft | 274 kts | 82° |
| 2026-04-25 01:12 | -36.99710 | 149.09928 | 14705 ft | 275 kts | 82° |
| 2026-04-25 01:12 | -36.99473 | 149.12305 | 14282 ft | 275 kts | 82° |
| 2026-04-25 01:12 | -36.99235 | 149.14681 | 13817 ft | 275 kts | 82° |
| 2026-04-25 01:12 | -36.98998 | 149.17049 | 13352 ft | 274 kts | 82° |
| 2026-04-25 01:13 | -36.98763 | 149.19385 | 12907 ft | 273 kts | 82° |
| 2026-04-25 01:13 | -36.98526 | 149.21736 | 12490 ft | 272 kts | 82° |
| 2026-04-25 01:13 | -36.98289 | 149.24080 | 12090 ft | 270 kts | 82° |
| 2026-04-25 01:13 | -36.98054 | 149.26410 | 11701 ft | 270 kts | 82° |
| 2026-04-25 01:14 | -36.97818 | 149.28740 | 11353 ft | 270 kts | 82° |
| 2026-04-25 01:14 | -36.97582 | 149.31068 | 11049 ft | 271 kts | 82° |
| 2026-04-25 01:14 | -36.97344 | 149.33404 | 10728 ft | 271 kts | 82° |
| 2026-04-25 01:14 | -36.97106 | 149.35746 | 10422 ft | 270 kts | 82° |
| 2026-04-25 01:15 | -36.96868 | 149.38071 | 10099 ft | 270 kts | 82° |
| 2026-04-25 01:15 | -36.96630 | 149.40392 | 9734 ft | 269 kts | 82° |
| 2026-04-25 01:15 | -36.96392 | 149.42719 | 9343 ft | 270 kts | 82° |
| 2026-04-25 01:15 | -36.96177 | 149.44821 | 9001 ft | 269 kts | 82° |
| 2026-04-25 01:16 | -36.95967 | 149.46861 | 8664 ft | 268 kts | 82° |
| 2026-04-25 01:16 | -36.95727 | 149.49182 | 8266 ft | 269 kts | 82° |
| 2026-04-25 01:16 | -36.95487 | 149.51502 | 7874 ft | 268 kts | 82° |
| 2026-04-25 01:16 | -36.95248 | 149.53815 | 7475 ft | 268 kts | 82° |
| 2026-04-25 01:17 | -36.95008 | 149.56135 | 7108 ft | 268 kts | 82° |
| 2026-04-25 01:17 | -36.94770 | 149.58435 | 6723 ft | 265 kts | 82° |
| 2026-04-25 01:17 | -36.94537 | 149.60683 | 6314 ft | 253 kts | 82° |
| 2026-04-25 01:17 | -36.94319 | 149.62782 | 5935 ft | 234 kts | 82° |
| 2026-04-25 01:18 | -36.94117 | 149.64719 | 5577 ft | 217 kts | 81° |
| 2026-04-25 01:18 | -36.93922 | 149.66570 | 5147 ft | 212 kts | 82° |
| 2026-04-25 01:18 | -36.93737 | 149.68363 | 4734 ft | 206 kts | 84° |
| 2026-04-25 01:18 | -36.93875 | 149.70144 | 4301 ft | 207 kts | 101° |
| 2026-04-25 01:19 | -36.94198 | 149.71868 | 3929 ft | 198 kts | 103° |
| 2026-04-25 01:19 | -36.94514 | 149.73495 | 3653 ft | 186 kts | 103° |
| 2026-04-25 01:19 | -36.94790 | 149.75024 | 3429 ft | 176 kts | 101° |
| 2026-04-25 01:19 | -36.95010 | 149.76468 | 3308 ft | 162 kts | 99° |
| 2026-04-25 01:20 | -36.95186 | 149.77920 | 3120 ft | 174 kts | 96° |
| 2026-04-25 01:20 | -36.95335 | 149.79457 | 3000 ft | 187 kts | 94° |
| 2026-04-25 01:20 | -36.95448 | 149.81101 | 2944 ft | 190 kts | 92° |
| 2026-04-25 01:20 | -36.95470 | 149.82709 | 2681 ft | 178 kts | 83° |
| 2026-04-25 01:21 | -36.95300 | 149.84229 | 2392 ft | 174 kts | 76° |
| 2026-04-25 01:21 | -36.94955 | 149.85668 | 1940 ft | 172 kts | 63° |
| 2026-04-25 01:21 | -36.94335 | 149.86830 | 1659 ft | 145 kts | 41° |
| 2026-04-25 01:21 | -36.93653 | 149.87594 | 1339 ft | 119 kts | 37° |
| 2026-04-25 01:22 | -36.93052 | 149.88162 | 1007 ft | 103 kts | 30° |
| 2026-04-25 01:22 | -36.92462 | 149.88646 | 600 ft | 98 kts | 29° |
| 2026-04-25 01:22 | -36.91918 | 149.89111 | 290 ft | 91 kts | 30° |
| 2026-04-25 01:22 | -36.91415 | 149.89552 | 69 ft | 86 kts | 30° |
| 2026-04-25 01:23 | -36.90972 | 149.89926 | 17 ft | 60 kts | 33° |
| 2026-04-25 01:23 | -36.90781 | 149.90080 | 17 ft | 15 kts | 21° |
| 2026-04-25 01:23 | -36.90741 | 149.90107 | 17 ft | 1 kts | 70° |
| 2026-04-25 01:23 | -36.90743 | 149.90103 | 17 ft | 1 kts | 57° |
| 2026-04-25 01:24 | -36.90751 | 149.90124 | 17 ft | 5 kts | 206° |
| 2026-04-25 01:24 | -36.90815 | 149.90054 | 20 ft | 17 kts | 213° |
| 2026-04-25 01:24 | -36.90896 | 149.90099 | 17 ft | 14 kts | 122° |
| 2026-04-25 01:24 | -36.90908 | 149.90122 | 18 ft | 0 kts | 123° |